Time;durP1;ratioP1;P1;durP2;ratioP2;P2;SDS_P1;SDS_P2;PMS_P1;PMS_P2;Temp;Humidity;BMP_temperature;BMP_pressure;BME280_temperature;BME280_humidity;BME280_pressure;Samples;Min_cycle;Max_cycle;Signal;HPM_P1;HPM_P2
2023/03/22 00:01:10;;;;;;;2.13;2.00;;;10.40;99.90;;;;;;5020032;28;20577;-71
2023/03/22 00:03:38;;;;;;;2.38;2.17;;;10.40;99.90;;;;;;5012490;28;20293;-71
2023/03/22 00:06:07;;;;;;;3.78;1.88;;;10.30;99.90;;;;;;5012489;28;20201;-71
2023/03/22 00:08:35;;;;;;;2.85;2.65;;;10.30;99.90;;;;;;5012629;28;20221;-71
2023/03/22 00:11:04;;;;;;;1.98;1.40;;;10.30;99.90;;;;;;5011642;28;20244;-71
2023/03/22 00:13:35;;;;;;;3.45;1.92;;;10.30;99.90;;;;;;5005362;28;20292;-71
2023/03/22 00:16:03;;;;;;;3.00;2.70;;;10.30;99.90;;;;;;5012026;28;20288;-71
2023/03/22 00:18:31;;;;;;;3.10;2.80;;;10.40;99.90;;;;;;5019317;28;20221;-71
2023/03/22 00:21:00;;;;;;;1.55;1.42;;;10.40;99.90;;;;;;5001322;28;20205;-71
2023/03/22 00:23:29;;;;;;;4.20;3.28;;;10.40;99.90;;;;;;5010140;28;20205;-71
2023/03/22 00:25:57;;;;;;;1.75;1.65;;;10.40;99.90;;;;;;5008865;28;20229;-71
2023/03/22 00:28:25;;;;;;;1.95;1.80;;;10.40;99.90;;;;;;5004146;28;20663;-71
2023/03/22 00:30:56;;;;;;;2.70;1.88;;;10.30;99.90;;;;;;5008362;28;20302;-72
2023/03/22 00:33:24;;;;;;;3.50;2.60;;;10.30;99.90;;;;;;5010219;28;20206;-72
2023/03/22 00:35:54;;;;;;;2.55;2.35;;;10.40;99.90;;;;;;5005534;28;20312;-71
2023/03/22 00:38:22;;;;;;;1.27;0.90;;;10.40;99.90;;;;;;5009031;28;20228;-71
2023/03/22 00:41:08;;;;;;;3.30;2.47;;;10.40;99.90;;;;;;5007401;28;20205;-71
2023/03/22 00:43:36;;;;;;;1.40;1.15;;;10.50;99.90;;;;;;5009570;28;20232;-71
2023/03/22 00:46:06;;;;;;;3.08;2.47;;;10.60;99.90;;;;;;5007288;28;20288;-72
2023/03/22 00:48:34;;;;;;;1.25;1.15;;;10.70;99.90;;;;;;5008596;28;20628;-71
2023/03/22 00:51:03;;;;;;;2.13;2.03;;;10.70;99.90;;;;;;5005774;28;20209;-72
2023/03/22 00:53:31;;;;;;;2.00;1.50;;;10.60;99.90;;;;;;5007906;28;20302;-71
2023/03/22 00:56:00;;;;;;;3.20;2.58;;;10.60;99.90;;;;;;5008006;28;20217;-72
2023/03/22 00:58:28;;;;;;;1.95;1.85;;;10.70;99.90;;;;;;5003535;28;20267;-72
2023/03/22 01:00:55;;;;;;;1.50;1.40;;;10.70;99.90;;;;;;5006606;28;20288;-71
2023/03/22 01:03:25;;;;;;;3.13;2.92;;;10.70;99.90;;;;;;5008846;28;20210;-71
2023/03/22 01:05:55;;;;;;;1.90;1.48;;;10.70;99.90;;;;;;5008943;28;20213;-71
2023/03/22 01:08:23;;;;;;;1.85;1.75;;;10.60;99.90;;;;;;5007262;28;20238;-71
2023/03/22 01:10:51;;;;;;;1.27;1.17;;;10.60;99.90;;;;;;5008982;28;20284;-71
2023/03/22 01:13:19;;;;;;;3.00;2.90;;;10.60;99.90;;;;;;5009350;28;20672;-71
2023/03/22 01:15:50;;;;;;;2.78;1.85;;;10.60;99.90;;;;;;5006268;28;20306;-69
2023/03/22 01:18:19;;;;;;;2.28;2.08;;;10.60;99.90;;;;;;5007348;28;20253;-69
2023/03/22 01:20:48;;;;;;;2.25;1.58;;;10.50;99.90;;;;;;4997470;28;20264;-69
2023/03/22 01:23:16;;;;;;;1.50;1.40;;;10.50;99.90;;;;;;5004925;28;20233;-68
2023/03/22 01:25:45;;;;;;;3.05;2.85;;;10.60;99.90;;;;;;5004370;28;20247;-68
2023/03/22 01:28:13;;;;;;;2.75;2.35;;;10.60;99.90;;;;;;5007759;28;20300;-71
2023/03/22 01:30:41;;;;;;;3.20;1.92;;;10.60;99.90;;;;;;5002448;28;20738;-70
2023/03/22 01:33:11;;;;;;;5.93;2.63;;;10.60;99.90;;;;;;5009732;28;20260;-71
2023/03/22 01:35:39;;;;;;;3.40;3.10;;;10.50;99.90;;;;;;5006285;28;20256;-72
2023/03/22 01:38:08;;;;;;;3.13;2.85;;;10.50;99.90;;;;;;5008012;28;20861;-71
2023/03/22 01:40:36;;;;;;;2.72;2.55;;;10.50;99.90;;;;;;5004131;28;20205;-72
2023/03/22 01:43:11;;;;;;;1.77;1.67;;;10.50;99.90;;;;;;5010926;28;20598;-72
2023/03/22 01:45:42;;;;;;;2.63;2.42;;;10.60;99.90;;;;;;5011001;28;20244;-71
2023/03/22 01:48:17;;;;;;;2.30;2.10;;;10.70;99.90;;;;;;5018371;28;20270;-72
2023/03/22 01:50:55;;;;;;;2.63;2.45;;;10.60;99.90;;;;;;5006550;28;20232;-72
2023/03/22 01:53:26;;;;;;;2.92;2.67;;;10.70;99.90;;;;;;5007062;28;20220;-71
2023/03/22 01:55:57;;;;;;;3.00;2.80;;;10.80;99.90;;;;;;5008613;28;20216;-72
2023/03/22 01:58:28;;;;;;;2.70;2.50;;;10.80;99.90;;;;;;5009295;28;21120;-75
2023/03/22 02:00:56;;;;;;;4.38;2.45;;;10.80;99.90;;;;;;5004146;28;20571;-73
2023/03/22 02:03:32;;;;;;;2.00;1.77;;;10.80;99.90;;;;;;5005633;28;20335;-72
2023/03/22 02:06:00;;;;;;;1.60;1.50;;;10.90;99.90;;;;;;5010265;28;20671;-72
2023/03/22 02:08:32;;;;;;;2.67;1.92;;;10.90;99.90;;;;;;5004833;28;20234;-72
2023/03/22 02:11:01;;;;;;;2.38;1.83;;;10.90;99.90;;;;;;5008277;28;20304;-74
2023/03/22 02:14:02;;;;;;;2.20;2.10;;;10.80;99.90;;;;;;5007423;28;20695;-72
2023/03/22 02:16:37;;;;;;;3.00;2.72;;;10.90;99.90;;;;;;5016894;28;20643;-73
2023/03/22 02:19:28;;;;;;;4.13;3.15;;;10.90;99.90;;;;;;5007311;28;20320;-72
2023/03/22 02:22:38;;;;;;;3.65;3.25;;;11.00;99.90;;;;;;5009717;28;20668;-74
2023/03/22 02:25:42;;;;;;;1.65;1.55;;;10.90;99.90;;;;;;4927734;28;20213;-73
2023/03/22 02:28:24;;;;;;;2.33;2.00;;;11.00;99.90;;;;;;5006647;28;20323;-73
2023/03/22 02:31:21;;;;;;;1.77;1.67;;;10.90;99.90;;;;;;5006204;28;20288;-74
2023/03/22 02:34:02;;;;;;;2.20;2.03;;;11.00;99.90;;;;;;4951736;28;20682;-73
2023/03/22 02:36:58;;;;;;;2.50;2.30;;;10.90;99.90;;;;;;5011093;28;20316;-72
2023/03/22 02:39:35;;;;;;;1.65;1.55;;;10.70;99.90;;;;;;5010736;28;20237;-73
2023/03/22 02:42:12;;;;;;;1.80;1.70;;;10.70;99.90;;;;;;5012817;28;20228;-74
2023/03/22 02:44:42;;;;;;;2.50;1.80;;;10.60;99.90;;;;;;5012526;28;20281;-71
2023/03/22 02:47:21;;;;;;;3.63;2.67;;;10.70;99.90;;;;;;5013230;28;20703;-70
2023/03/22 02:49:56;;;;;;;3.70;3.33;;;10.60;99.90;;;;;;5012991;28;20249;-70
2023/03/22 02:52:32;;;;;;;2.63;2.30;;;10.60;99.90;;;;;;5012115;28;20295;-70
2023/03/22 02:55:09;;;;;;;1.42;1.33;;;10.50;99.90;;;;;;5006965;28;20255;-71
2023/03/22 02:57:42;;;;;;;2.25;1.48;;;10.50;99.90;;;;;;5009506;28;20209;-71
2023/03/22 03:00:13;;;;;;;2.00;1.85;;;10.40;99.90;;;;;;5010390;28;20264;-73
2023/03/22 03:02:46;;;;;;;1.58;1.40;;;10.30;99.90;;;;;;5011781;28;20205;-72
2023/03/22 03:05:16;;;;;;;3.03;2.00;;;10.30;99.90;;;;;;5009174;28;20704;-71
2023/03/22 03:07:46;;;;;;;2.40;2.20;;;10.20;99.90;;;;;;5010966;28;20284;-71
2023/03/22 03:10:18;;;;;;;2.17;1.95;;;9.80;99.90;;;;;;5010649;28;20213;-73
2023/03/22 03:12:46;;;;;;;3.00;2.80;;;9.10;99.90;;;;;;5006299;28;20292;-71
2023/03/22 03:15:17;;;;;;;2.95;1.67;;;8.60;99.90;;;;;;5010219;28;20284;-72
2023/03/22 03:18:00;;;;;;;2.20;2.00;;;8.60;99.90;;;;;;5018005;28;20236;-71
2023/03/22 03:20:35;;;;;;;2.50;2.30;;;8.70;99.90;;;;;;5007222;28;20245;-71
2023/03/22 03:23:16;;;;;;;2.08;1.88;;;8.90;99.90;;;;;;5010481;28;20694;-71
2023/03/22 03:25:56;;;;;;;3.83;3.53;;;9.20;99.90;;;;;;5003798;28;20288;-72
2023/03/22 03:28:37;;;;;;;3.00;2.30;;;9.30;99.90;;;;;;5008885;28;20237;-71
2023/03/22 03:31:16;;;;;;;4.30;3.72;;;9.40;99.90;;;;;;5009932;28;20201;-71
2023/03/22 03:33:51;;;;;;;2.05;1.90;;;9.40;99.90;;;;;;5009093;28;20675;-72
2023/03/22 03:36:21;;;;;;;1.80;1.38;;;9.50;99.90;;;;;;5010112;28;20652;-71
2023/03/22 03:38:52;;;;;;;4.07;3.58;;;9.50;99.90;;;;;;5010813;28;20255;-71
2023/03/22 03:41:25;;;;;;;3.22;2.90;;;9.60;99.90;;;;;;5012626;28;20219;-73
2023/03/22 03:43:54;;;;;;;2.40;1.75;;;9.50;99.90;;;;;;5010875;28;20215;-71
2023/03/22 03:46:23;;;;;;;3.35;3.05;;;9.60;99.90;;;;;;5008367;28;20738;-74
2023/03/22 03:48:52;;;;;;;1.15;1.05;;;9.60;99.90;;;;;;5016406;28;20252;-72
2023/03/22 03:51:20;;;;;;;4.28;2.40;;;9.60;99.90;;;;;;5010902;28;20288;-72
2023/03/22 03:53:48;;;;;;;2.90;2.70;;;9.60;99.90;;;;;;5009741;28;20289;-72
2023/03/22 03:56:16;;;;;;;1.70;1.15;;;9.50;99.90;;;;;;5007785;28;20304;-72
2023/03/22 03:58:45;;;;;;;3.78;3.47;;;9.50;99.90;;;;;;5011307;28;20245;-72
2023/03/22 04:01:13;;;;;;;2.53;1.75;;;9.50;99.90;;;;;;5009061;28;20253;-72
2023/03/22 04:03:41;;;;;;;1.23;1.13;;;9.40;99.90;;;;;;5009769;28;20217;-70
2023/03/22 04:06:09;;;;;;;2.10;1.48;;;9.40;99.90;;;;;;5010625;28;20233;-70
2023/03/22 04:08:37;;;;;;;1.60;1.45;;;9.40;99.90;;;;;;5009254;28;20239;-73
2023/03/22 04:11:05;;;;;;;1.63;1.35;;;9.40;99.90;;;;;;5008552;28;20214;-68
2023/03/22 04:13:33;;;;;;;3.45;2.28;;;9.30;99.90;;;;;;5007335;28;20213;-69
2023/03/22 04:16:02;;;;;;;2.20;1.58;;;9.30;99.90;;;;;;5012943;28;20272;-70
2023/03/22 04:18:30;;;;;;;1.83;1.67;;;9.40;99.90;;;;;;5013866;28;20433;-69
2023/03/22 04:20:58;;;;;;;2.25;2.00;;;9.40;99.90;;;;;;5006462;28;20240;-73
2023/03/22 04:23:26;;;;;;;2.40;1.80;;;9.40;99.90;;;;;;5007374;28;20493;-71
2023/03/22 04:25:58;;;;;;;2.58;1.98;;;9.40;99.90;;;;;;5002539;28;20214;-69
2023/03/22 04:28:26;;;;;;;1.55;1.45;;;9.40;99.90;;;;;;5011253;28;20267;-70
2023/03/22 04:30:56;;;;;;;2.55;2.03;;;9.50;99.90;;;;;;5008514;28;20233;-69
2023/03/22 04:33:25;;;;;;;2.95;2.75;;;9.40;99.90;;;;;;5009101;28;20698;-70
2023/03/22 04:35:55;;;;;;;1.65;1.50;;;9.50;99.90;;;;;;5009924;28;20207;-72
2023/03/22 04:38:24;;;;;;;3.25;2.13;;;9.50;99.90;;;;;;5008564;28;20260;-71
2023/03/22 04:40:52;;;;;;;2.60;2.40;;;9.40;99.90;;;;;;5006697;28;20284;-70
2023/03/22 04:43:20;;;;;;;1.48;1.38;;;9.50;99.90;;;;;;5008750;28;20248;-70
2023/03/22 04:45:48;;;;;;;2.25;1.67;;;9.60;99.90;;;;;;4990793;28;20243;-73
2023/03/22 04:48:19;;;;;;;1.20;1.10;;;9.50;99.90;;;;;;5010610;28;20244;-74
2023/03/22 04:50:52;;;;;;;1.45;1.35;;;9.40;99.90;;;;;;5012120;28;20621;-73
2023/03/22 04:53:25;;;;;;;2.75;0.80;;;9.40;99.90;;;;;;5009801;28;20632;-71
2023/03/22 04:55:55;;;;;;;2.03;1.40;;;9.50;99.90;;;;;;5009075;28;20205;-71
2023/03/22 04:58:23;;;;;;;2.78;1.80;;;9.40;99.90;;;;;;5003257;28;20304;-72
2023/03/22 05:00:52;;;;;;;1.30;0.70;;;9.40;99.90;;;;;;5008070;28;20288;-72
2023/03/22 05:03:20;;;;;;;2.10;1.77;;;9.40;99.90;;;;;;5008553;28;20209;-72
2023/03/22 05:05:55;;;;;;;1.50;1.40;;;9.40;99.90;;;;;;5006601;28;20649;-72
2023/03/22 05:08:24;;;;;;;1.77;1.67;;;9.40;99.90;;;;;;5011155;28;20301;-72
2023/03/22 05:10:52;;;;;;;1.50;1.00;;;9.50;99.90;;;;;;5011641;28;20643;-73
2023/03/22 05:13:22;;;;;;;1.40;1.30;;;9.40;99.90;;;;;;5009208;28;20745;-66
2023/03/22 05:15:50;;;;;;;1.45;1.35;;;9.40;99.90;;;;;;5006416;28;20636;-68
2023/03/22 05:18:20;;;;;;;1.65;1.20;;;9.20;99.90;;;;;;5006499;28;20281;-67
2023/03/22 05:20:48;;;;;;;2.10;1.17;;;9.00;99.90;;;;;;4995075;28;20232;-68
2023/03/22 05:23:18;;;;;;;1.20;1.10;;;8.90;99.90;;;;;;4996019;28;20264;-69
2023/03/22 05:25:46;;;;;;;0.88;0.88;;;8.70;99.90;;;;;;5004945;28;20212;-68
2023/03/22 05:28:14;;;;;;;1.00;0.90;;;8.70;99.90;;;;;;5005846;28;20296;-68
2023/03/22 05:30:43;;;;;;;1.63;1.52;;;8.50;99.90;;;;;;5003926;28;20208;-68
2023/03/22 05:33:11;;;;;;;1.75;1.65;;;8.50;99.90;;;;;;5003012;28;20292;-68
2023/03/22 05:35:41;;;;;;;2.40;1.83;;;8.40;99.90;;;;;;5002881;28;20294;-67
2023/03/22 05:38:10;;;;;;;1.42;1.25;;;8.40;99.90;;;;;;5003431;28;20479;-68
2023/03/22 05:40:39;;;;;;;1.77;1.65;;;8.30;99.90;;;;;;5003958;28;20239;-70
2023/03/22 05:43:07;;;;;;;2.63;2.40;;;8.30;99.90;;;;;;5006044;28;20217;-68
2023/03/22 05:45:36;;;;;;;1.75;1.63;;;8.30;99.90;;;;;;5003777;28;20288;-70
2023/03/22 05:48:05;;;;;;;1.35;1.25;;;8.30;99.90;;;;;;5005317;28;20305;-68
2023/03/22 05:50:33;;;;;;;1.33;1.10;;;8.30;99.90;;;;;;5004188;28;20588;-68
2023/03/22 05:53:01;;;;;;;1.95;1.73;;;8.30;99.90;;;;;;5005807;28;20211;-69
2023/03/22 05:55:30;;;;;;;4.10;2.15;;;8.30;99.90;;;;;;5007893;28;20254;-69
2023/03/22 05:58:01;;;;;;;3.88;2.55;;;8.30;99.90;;;;;;5005245;28;21034;-68
2023/03/22 06:00:30;;;;;;;2.10;1.77;;;8.30;99.90;;;;;;5005546;28;20295;-67
2023/03/22 06:03:02;;;;;;;2.00;1.90;;;8.20;99.90;;;;;;4999785;28;20209;-70
2023/03/22 06:05:31;;;;;;;1.38;1.00;;;8.20;99.90;;;;;;5007061;28;20204;-68
2023/03/22 06:07:59;;;;;;;2.33;1.85;;;8.20;99.90;;;;;;5006681;28;20287;-67
2023/03/22 06:10:27;;;;;;;1.90;1.70;;;8.10;99.90;;;;;;5007285;28;20243;-68
2023/03/22 06:12:55;;;;;;;2.08;1.67;;;8.00;99.90;;;;;;5009220;28;20793;-68
2023/03/22 06:15:24;;;;;;;2.08;1.88;;;7.90;99.90;;;;;;5008152;28;20290;-68
2023/03/22 06:17:52;;;;;;;2.22;1.98;;;7.90;99.90;;;;;;5013048;28;20225;-68
2023/03/22 06:20:20;;;;;;;3.83;2.35;;;8.00;99.90;;;;;;5008633;28;20596;-69
2023/03/22 06:22:48;;;;;;;2.35;2.15;;;8.00;99.90;;;;;;5010770;28;20229;-67
2023/03/22 06:25:16;;;;;;;3.00;2.20;;;8.00;99.90;;;;;;5009959;28;20205;-68
2023/03/22 06:27:44;;;;;;;2.25;1.50;;;8.10;99.90;;;;;;5010340;28;20619;-67
2023/03/22 06:30:13;;;;;;;4.50;2.70;;;8.20;99.90;;;;;;5012546;28;20224;-68
2023/03/22 06:32:42;;;;;;;1.88;1.67;;;8.30;99.90;;;;;;5011332;28;20634;-68
2023/03/22 06:35:10;;;;;;;2.00;1.83;;;8.40;99.90;;;;;;5008659;28;20307;-69
2023/03/22 06:37:38;;;;;;;2.00;1.90;;;8.40;99.90;;;;;;5010434;28;20249;-69
2023/03/22 06:40:07;;;;;;;2.10;1.90;;;8.50;99.90;;;;;;5009773;28;20221;-67
2023/03/22 06:42:36;;;;;;;2.33;2.13;;;8.50;99.90;;;;;;5009889;28;20289;-67
2023/03/22 06:45:04;;;;;;;2.75;1.88;;;8.60;99.90;;;;;;5010758;28;20288;-68
2023/03/22 06:47:32;;;;;;;2.17;1.90;;;8.70;99.90;;;;;;5013449;28;20236;-68
2023/03/22 06:50:02;;;;;;;3.35;1.85;;;8.70;99.90;;;;;;5013615;28;20787;-69
2023/03/22 06:52:29;;;;;;;1.60;1.27;;;8.70;99.90;;;;;;5013040;28;20300;-67
2023/03/22 06:54:57;;;;;;;1.58;1.35;;;8.70;99.90;;;;;;5006297;28;20287;-67
2023/03/22 06:57:25;;;;;;;2.28;2.08;;;8.60;99.90;;;;;;5013496;28;20292;-68
2023/03/22 06:59:53;;;;;;;1.88;1.77;;;8.60;99.90;;;;;;5007581;28;20331;-67
2023/03/22 07:02:21;;;;;;;2.55;2.33;;;8.60;99.90;;;;;;5010073;28;20295;-68
2023/03/22 07:04:49;;;;;;;1.48;1.35;;;8.70;99.90;;;;;;5005396;28;20248;-67
2023/03/22 07:07:18;;;;;;;1.95;1.85;;;8.70;99.90;;;;;;5008170;28;20209;-67
2023/03/22 07:09:46;;;;;;;2.17;1.98;;;8.70;99.90;;;;;;5005831;28;20234;-67
2023/03/22 07:12:14;;;;;;;2.88;2.33;;;8.80;99.90;;;;;;5009454;28;20284;-68
2023/03/22 07:14:42;;;;;;;1.73;1.63;;;8.80;99.90;;;;;;5006296;28;20633;-68
2023/03/22 07:17:11;;;;;;;2.05;1.25;;;8.80;99.90;;;;;;5015253;28;20209;-68
2023/03/22 07:19:40;;;;;;;2.28;2.05;;;8.90;99.90;;;;;;5008305;28;20228;-68
2023/03/22 07:22:08;;;;;;;2.10;1.95;;;9.00;99.90;;;;;;5010547;28;20388;-68
2023/03/22 07:24:37;;;;;;;1.02;0.95;;;9.00;99.90;;;;;;5009552;28;20205;-68
2023/03/22 07:27:22;;;;;;;1.42;1.33;;;9.20;99.90;;;;;;5006389;28;20691;-68
2023/03/22 07:29:50;;;;;;;1.00;0.90;;;9.30;99.90;;;;;;5013326;28;20251;-67
2023/03/22 07:32:18;;;;;;;1.45;1.20;;;9.30;99.90;;;;;;5013392;28;20640;-67
2023/03/22 07:34:46;;;;;;;1.02;0.93;;;9.30;99.90;;;;;;5012796;28;20201;-67
2023/03/22 07:37:14;;;;;;;2.03;1.15;;;9.30;99.90;;;;;;5013399;28;20288;-67
2023/03/22 07:39:44;;;;;;;2.20;1.77;;;9.40;99.90;;;;;;5013076;28;20319;-67
2023/03/22 07:42:11;;;;;;;3.08;2.03;;;9.60;99.90;;;;;;5013719;28;20240;-68
2023/03/22 07:44:39;;;;;;;1.40;1.10;;;9.60;99.90;;;;;;5012660;28;20225;-68
2023/03/22 07:47:07;;;;;;;1.10;1.05;;;9.70;99.90;;;;;;5027013;28;20612;-68
2023/03/22 07:49:35;;;;;;;0.70;0.60;;;9.70;99.90;;;;;;5022882;28;20494;-67
2023/03/22 07:52:03;;;;;;;1.45;1.35;;;9.70;99.90;;;;;;5012976;28;20241;-67
2023/03/22 07:54:31;;;;;;;0.88;0.88;;;9.70;99.90;;;;;;5012645;28;20236;-67
2023/03/22 07:57:02;;;;;;;1.10;1.00;;;9.80;99.90;;;;;;5013437;28;20586;-67
2023/03/22 07:59:30;;;;;;;1.80;1.25;;;9.80;99.90;;;;;;5013047;28;20670;-67
2023/03/22 08:01:58;;;;;;;1.35;1.25;;;10.00;99.90;;;;;;5012813;28;20292;-68
2023/03/22 08:04:27;;;;;;;0.98;0.98;;;10.10;99.90;;;;;;5012701;28;20691;-69
2023/03/22 08:06:57;;;;;;;1.02;0.93;;;10.20;99.90;;;;;;5013165;28;20263;-69
2023/03/22 08:09:25;;;;;;;1.50;1.40;;;10.30;99.90;;;;;;5012693;28;20251;-67
2023/03/22 08:11:53;;;;;;;1.17;1.10;;;10.40;99.90;;;;;;5004782;28;20292;-67
2023/03/22 08:14:22;;;;;;;0.82;0.82;;;10.50;99.90;;;;;;5012351;28;20617;-67
2023/03/22 08:17:02;;;;;;;1.30;1.20;;;10.40;99.90;;;;;;5025584;28;20698;-66
2023/03/22 08:19:31;;;;;;;1.02;0.93;;;10.60;99.90;;;;;;5015045;28;20251;-67
2023/03/22 08:22:00;;;;;;;1.50;0.95;;;10.80;99.90;;;;;;5012428;28;20260;-68
2023/03/22 08:24:27;;;;;;;1.25;1.15;;;11.00;99.90;;;;;;5011945;28;20281;-68
2023/03/22 08:26:56;;;;;;;1.35;0.57;;;11.20;99.90;;;;;;5012434;28;20225;-67
2023/03/22 08:29:26;;;;;;;1.05;0.95;;;11.40;99.90;;;;;;5012275;28;20252;-68
2023/03/22 08:31:54;;;;;;;0.70;0.70;;;11.50;99.90;;;;;;5004348;28;20205;-68
2023/03/22 08:34:22;;;;;;;0.68;0.68;;;11.70;99.90;;;;;;5011841;28;20332;-67
2023/03/22 08:36:50;;;;;;;0.70;0.40;;;11.70;99.90;;;;;;5012501;28;20670;-68
2023/03/22 08:39:18;;;;;;;0.70;0.70;;;11.80;99.90;;;;;;5012134;28;20323;-67
2023/03/22 08:41:46;;;;;;;0.63;0.63;;;11.70;99.90;;;;;;5011883;28;20205;-67
2023/03/22 08:44:14;;;;;;;0.60;0.60;;;11.70;99.90;;;;;;5011847;28;20236;-67
2023/03/22 08:46:43;;;;;;;0.60;0.60;;;11.70;99.90;;;;;;5021735;28;20232;-68
2023/03/22 08:49:11;;;;;;;0.90;0.90;;;11.60;99.90;;;;;;5025784;28;20779;-69
2023/03/22 08:51:40;;;;;;;0.85;0.85;;;11.70;99.90;;;;;;5011662;28;20296;-67
2023/03/22 08:54:07;;;;;;;0.60;0.55;;;11.70;99.90;;;;;;5011745;28;20284;-68
2023/03/22 08:56:36;;;;;;;0.60;0.57;;;11.80;99.90;;;;;;5011831;28;20618;-68
2023/03/22 08:59:06;;;;;;;0.60;0.50;;;12.00;99.90;;;;;;5011583;28;20283;-67
2023/03/22 09:01:35;;;;;;;0.70;0.70;;;12.20;99.90;;;;;;5011500;28;20583;-67
2023/03/22 09:04:04;;;;;;;0.95;0.90;;;12.40;99.90;;;;;;5011479;28;20217;-68
2023/03/22 09:06:33;;;;;;;0.93;0.82;;;12.50;99.90;;;;;;5011624;28;20255;-68
2023/03/22 09:09:00;;;;;;;1.10;0.93;;;12.40;99.90;;;;;;5011797;28;20308;-68
2023/03/22 09:11:28;;;;;;;0.52;0.38;;;12.40;99.90;;;;;;5011735;28;20666;-67
2023/03/22 09:13:56;;;;;;;0.60;0.50;;;12.40;99.90;;;;;;5003391;28;20594;-70
2023/03/22 09:16:24;;;;;;;0.50;0.40;;;12.30;99.90;;;;;;5018767;28;20219;-68
2023/03/22 09:18:52;;;;;;;1.13;1.02;;;12.20;99.90;;;;;;5027744;28;20267;-67
2023/03/22 09:21:21;;;;;;;0.80;0.80;;;12.20;99.90;;;;;;5011520;28;20213;-67
2023/03/22 09:23:49;;;;;;;0.65;0.65;;;12.40;99.90;;;;;;5011039;28;20324;-68
2023/03/22 09:26:18;;;;;;;0.85;0.80;;;12.50;99.90;;;;;;5011488;28;20255;-68
2023/03/22 09:28:46;;;;;;;1.98;1.48;;;12.60;99.90;;;;;;5011059;28;20321;-67
2023/03/22 09:31:14;;;;;;;0.60;0.45;;;12.80;99.90;;;;;;5011621;28;20209;-67
2023/03/22 09:33:45;;;;;;;0.60;0.50;;;12.80;99.90;;;;;;5010914;28;20591;-68
2023/03/22 09:36:13;;;;;;;0.73;0.55;;;12.90;99.90;;;;;;5011575;28;20284;-67
2023/03/22 09:38:42;;;;;;;0.80;0.60;;;12.90;99.90;;;;;;5011107;28;20311;-67
2023/03/22 09:41:15;;;;;;;0.60;0.52;;;13.00;99.90;;;;;;5011232;28;20288;-68
2023/03/22 09:43:48;;;;;;;0.50;0.40;;;13.10;99.90;;;;;;5010741;28;20216;-71
2023/03/22 09:46:20;;;;;;;0.88;0.88;;;13.10;99.90;;;;;;5017206;28;20258;-67
2023/03/22 09:48:50;;;;;;;0.50;0.30;;;13.20;99.90;;;;;;5020138;28;20221;-67
2023/03/22 09:51:29;;;;;;;0.50;0.40;;;13.20;99.90;;;;;;5011112;28;20207;-67
2023/03/22 09:53:59;;;;;;;0.50;0.30;;;13.10;99.90;;;;;;5002712;28;20340;-67
2023/03/22 09:56:31;;;;;;;0.60;0.40;;;13.00;99.90;;;;;;5011140;28;20211;-68
2023/03/22 09:59:06;;;;;;;0.50;0.30;;;13.00;99.90;;;;;;5002904;28;20261;-67
2023/03/22 10:01:40;;;;;;;0.77;0.57;;;13.10;99.90;;;;;;5010897;28;20299;-67
2023/03/22 10:04:26;;;;;;;0.82;0.50;;;13.10;99.90;;;;;;5010699;28;20659;-69
2023/03/22 10:07:05;;;;;;;0.50;0.40;;;13.30;99.90;;;;;;5010754;28;20201;-68
2023/03/22 10:09:42;;;;;;;0.60;0.40;;;13.60;99.90;;;;;;5010803;28;20248;-69
2023/03/22 10:12:20;;;;;;;0.57;0.45;;;13.70;99.90;;;;;;5010999;28;20288;-68
2023/03/22 10:14:51;;;;;;;0.60;0.43;;;13.90;99.90;;;;;;5010329;28;20213;-67
2023/03/22 10:17:25;;;;;;;0.60;0.50;;;14.20;99.90;;;;;;5016976;28;20283;-67
2023/03/22 10:19:57;;;;;;;0.77;0.57;;;14.40;99.90;;;;;;5011166;28;20650;-67
2023/03/22 10:22:29;;;;;;;0.65;0.45;;;14.60;99.90;;;;;;5010897;28;20205;-67
2023/03/22 10:25:00;;;;;;;0.50;0.40;;;14.90;99.90;;;;;;5010291;28;20288;-67
2023/03/22 10:27:30;;;;;;;0.50;0.40;;;15.10;99.90;;;;;;5010836;28;20291;-67
2023/03/22 10:30:01;;;;;;;0.60;0.43;;;15.30;99.90;;;;;;5010170;28;20252;-67
2023/03/22 10:32:36;;;;;;;0.50;0.35;;;15.60;99.90;;;;;;5010839;28;20240;-68
2023/03/22 10:35:23;;;;;;;0.63;0.55;;;16.00;99.90;;;;;;5010238;28;20284;-67
2023/03/22 10:37:52;;;;;;;0.50;0.40;;;16.00;99.90;;;;;;5010450;28;20218;-67
2023/03/22 10:40:26;;;;;;;0.50;0.30;;;16.30;99.90;;;;;;5009969;28;20225;-68
2023/03/22 10:42:56;;;;;;;0.50;0.40;;;16.10;99.90;;;;;;5008761;28;20722;-67
2023/03/22 10:45:26;;;;;;;0.60;0.40;;;15.80;99.90;;;;;;5010394;28;20649;-68
2023/03/22 10:47:58;;;;;;;0.50;0.40;;;15.80;99.90;;;;;;5010291;28;20295;-68
2023/03/22 10:50:32;;;;;;;0.50;0.40;;;15.60;99.90;;;;;;5010348;28;20738;-67
2023/03/22 10:53:05;;;;;;;0.60;0.40;;;15.80;99.90;;;;;;5009809;28;20292;-68
2023/03/22 10:55:39;;;;;;;0.50;0.40;;;15.90;99.90;;;;;;5010681;28;20241;-68
2023/03/22 10:58:15;;;;;;;0.50;0.40;;;15.90;99.90;;;;;;5013215;28;20340;-67
2023/03/22 11:00:45;;;;;;;0.88;0.50;;;16.00;99.90;;;;;;5013530;28;20300;-68
2023/03/22 11:03:27;;;;;;;0.60;0.40;;;16.20;99.90;;;;;;5013962;28;20201;-67
2023/03/22 11:06:02;;;;;;;0.50;0.30;;;16.30;99.90;;;;;;5013764;28;20215;-68
2023/03/22 11:08:39;;;;;;;0.63;0.50;;;16.20;99.90;;;;;;5013863;28;20271;-67
2023/03/22 11:11:16;;;;;;;0.60;0.60;;;16.00;99.90;;;;;;5013662;28;20719;-70
2023/03/22 11:13:51;;;;;;;0.50;0.30;;;16.50;99.90;;;;;;5022358;28;20657;-67
2023/03/22 11:16:19;;;;;;;0.80;0.60;;;17.00;99.90;;;;;;5019753;28;20452;-67
2023/03/22 11:18:47;;;;;;;0.50;0.30;;;17.40;99.90;;;;;;5013567;28;20564;-68
2023/03/22 11:21:17;;;;;;;0.50;0.30;;;17.40;99.90;;;;;;5013382;28;20328;-68
2023/03/22 11:23:53;;;;;;;0.50;0.40;;;17.60;99.90;;;;;;5013800;28;20212;-67
2023/03/22 11:26:29;;;;;;;0.60;0.40;;;17.70;99.90;;;;;;5013496;28;20691;-67
2023/03/22 11:29:04;;;;;;;0.60;0.40;;;17.60;99.90;;;;;;5013486;28;20237;-67
2023/03/22 11:31:49;;;;;;;0.60;0.40;;;17.80;99.90;;;;;;5013212;28;20200;-67
2023/03/22 11:34:22;;;;;;;0.60;0.40;;;18.10;99.90;;;;;;5008258;28;20648;-68
2023/03/22 11:36:55;;;;;;;0.63;0.50;;;18.00;99.90;;;;;;5013188;28;20292;-68
2023/03/22 11:39:27;;;;;;;0.82;0.82;;;18.10;99.90;;;;;;5013119;28;20738;-67
2023/03/22 11:42:00;;;;;;;0.60;0.40;;;18.40;99.90;;;;;;5015440;28;20707;-68
2023/03/22 11:44:33;;;;;;;0.65;0.50;;;18.50;99.90;;;;;;5032834;28;20205;-67
2023/03/22 11:47:03;;;;;;;0.50;0.40;;;18.50;99.90;;;;;;5013271;28;20209;-67
2023/03/22 11:49:39;;;;;;;0.50;0.40;;;18.50;99.90;;;;;;5012956;28;21027;-68
2023/03/22 11:52:11;;;;;;;0.50;0.30;;;18.70;99.90;;;;;;5005597;28;20610;-67
2023/03/22 11:54:41;;;;;;;0.60;0.50;;;18.70;99.90;;;;;;5012919;28;20243;-72
2023/03/22 11:57:15;;;;;;;0.60;0.50;;;18.80;99.90;;;;;;5012978;28;20211;-68
2023/03/22 11:59:49;;;;;;;0.52;0.40;;;19.00;99.90;;;;;;5012483;28;20652;-68
2023/03/22 12:02:23;;;;;;;0.70;0.50;;;18.80;99.90;;;;;;5012994;28;20605;-69
2023/03/22 12:04:59;;;;;;;0.60;0.40;;;18.90;99.90;;;;;;5012683;28;20619;-68
2023/03/22 12:07:30;;;;;;;0.50;0.30;;;18.40;99.90;;;;;;5012637;28;20586;-67
2023/03/22 12:10:02;;;;;;;0.50;0.30;;;18.60;99.90;;;;;;5012524;28;20699;-67
2023/03/22 12:12:35;;;;;;;0.63;0.63;;;18.70;99.90;;;;;;5019550;28;20246;-67
2023/03/22 12:15:07;;;;;;;0.50;0.40;;;18.80;99.90;;;;;;5020966;28;20296;-68
2023/03/22 12:17:40;;;;;;;0.50;0.40;;;18.80;99.90;;;;;;5012652;28;20299;-67
2023/03/22 12:20:17;;;;;;;0.60;0.40;;;19.20;99.90;;;;;;5005040;28;20257;-67
2023/03/22 12:22:51;;;;;;;0.50;0.30;;;19.10;99.90;;;;;;5012328;28;20213;-68
2023/03/22 12:25:22;;;;;;;1.92;0.88;;;19.20;99.90;;;;;;5012706;28;20546;-67
2023/03/22 12:27:54;;;;;;;0.50;0.30;;;19.10;99.90;;;;;;5012640;28;20240;-68
2023/03/22 12:30:25;;;;;;;0.50;0.35;;;18.80;99.90;;;;;;5012856;28;20627;-67
2023/03/22 12:33:00;;;;;;;0.60;0.40;;;18.40;99.90;;;;;;5012440;28;20291;-68
2023/03/22 12:35:32;;;;;;;0.50;0.40;;;18.20;99.90;;;;;;5012469;28;20211;-67
2023/03/22 12:38:09;;;;;;;0.50;0.35;;;18.10;99.90;;;;;;5012261;28;20296;-68
2023/03/22 12:40:40;;;;;;;0.60;0.40;;;18.10;99.90;;;;;;5012246;28;20301;-68
2023/03/22 12:43:17;;;;;;;0.50;0.30;;;18.20;99.90;;;;;;5023931;28;20203;-68
2023/03/22 12:45:48;;;;;;;0.50;0.40;;;18.20;99.90;;;;;;5022967;28;20209;-67
2023/03/22 12:48:20;;;;;;;0.60;0.40;;;18.20;99.90;;;;;;5012357;28;20239;-68
2023/03/22 12:50:52;;;;;;;0.50;0.30;;;18.40;99.90;;;;;;5011951;28;20288;-69
2023/03/22 12:53:21;;;;;;;0.70;0.50;;;18.60;99.90;;;;;;5011837;28;20288;-67
2023/03/22 12:55:50;;;;;;;0.60;0.40;;;18.90;99.90;;;;;;5011577;28;20211;-68
2023/03/22 12:58:21;;;;;;;0.60;0.50;;;18.90;99.90;;;;;;5011463;28;20228;-69
2023/03/22 13:00:53;;;;;;;0.60;0.45;;;18.90;99.90;;;;;;5011836;28;20213;-68
2023/03/22 13:03:27;;;;;;;0.70;0.60;;;19.20;99.90;;;;;;5012022;28;20213;-67
2023/03/22 13:06:01;;;;;;;0.50;0.30;;;19.30;99.90;;;;;;5011628;28;20274;-67
2023/03/22 13:09:03;;;;;;;0.50;0.30;;;19.10;99.90;;;;;;5011599;28;20304;-68
2023/03/22 13:11:31;;;;;;;0.50;0.30;;;18.90;99.90;;;;;;5006871;28;20730;-68